Ride Results

Greenhills - York (26-08-2000)
Ride distance: 80.0 km

Outcomes - Greenhills - York (26-08-2000)
Division No. of Entries Retired / DNE Completed Withdrawn Ineligible V/O Percentage Completed
HW 5 - 4 1 - - 80.00%
MW 31 - 27 1 - 3 87.10%
LW 22 - 19 - 1 2 86.36%
JN 9 - 7 1 - 1 77.78%
Totals 67 - 57 3 1 6 85.07%
Results - Greenhills - York (26-08-2000)
No. Rider Horse Place Time Leg Speeds Total
Km/Hr
H/R bpm
Heavyweight
85 Norb Radny Yarra View Amber 1 (BC) 4:53:00 19.3, 14.2 16.38 32, 40, 39 (Avg:39)
76 Ross McCamish Paradise Valley Perfection 2 6:17:00 18.4, 9.7 12.73 36, 45, 52 (Avg:48)
99 Patrick Daly Yaldon Gwai Sadiiq 3 7:58:00 10.4, 9.6 10.04 33, 36, 58 (Avg:47)
94 Keith Davenport Tanderra Duchess 4 8:56:00 9.3, 8.6 8.96 40, 49, 57 (Avg:53)
57 Robert Burns Kimberley Djimberlura Withdrawn L1 0:00:00 - - 44, 51 (Avg:51)
Middleweight
75 Bill Dransfield Fawley Indigo 1 4:43:00 19.6, 14.9 16.96 46, 43, 49 (Avg:46)
66 Kate Caughey Maralinga Mariah 2 5:47:00 19.3, 10.7 13.83 39, 43, 52 (Avg:47)
86 Graham Bucknell Noran Trexler 3 6:17:00 19.0, 9.5 12.73 36, 47, 54 (Avg:50)
79 Mike Gill Cherox Tadarraja 4 6:55:00 14.3, 9.6 11.57 38, 39, 51 (Avg:45)
78 Fred Webb Kargre Naadan 5 7:02:00 12.4, 10.4 11.37 33, 42, 47 (Avg:44)
61 Frances Overheu Rumpole 6 7:10:00 12.6, 9.9 11.16 33, 41, 45 (Avg:43)
73 Michelle Lewis Yeoman Zadaya 7 7:10:01 12.6, 9.9 11.16 34, 43, 44 (Avg:43)
53 Baz O'Driscoll Naahdeeky 8 7:20:00 11.3, 10.4 10.91 42, 44, 58 (Avg:51)
74 Maeve Dransfield Denmark Zamaan 9 7:23:00 11.8, 9.9 10.84 33, 40, 46 (Avg:43)
70 James Lockwood Tora Zeek 10 7:27:00 11.2, 10.3 10.74 41, 37, 50 (Avg:43)
71 Julia Lockwood Bostocks Baskeela 11 7:27:01 11.2, 10.2 10.74 29, 42, 38 (Avg:40)
60 Keith Andrews Yaldon Amat 12 7:52:00 11.4, 9.1 10.17 39, 37, 48 (Avg:42)
104 Tania Foster Kularin Shartarn 13 7:59:00 11.1, 9.1 10.02 40, 49, 55 (Avg:52)
R2 Julie Wraight Nenuphar Nazarene 13 7:59:00 10.8, 9.3 10.02 34, 30, 39 (Avg:34)
77 Sarah Adams Sahra Saskia 15 8:04:00 10.7, 9.1 9.92 40, 51, 54 (Avg:52)
68 Sue Goodwin Camp Fire Story 15 8:04:00 10.7, 9.1 9.92 39, 44, 47 (Avg:45)
54 Kerry Stanley Kellyco 17 8:08:00 10.9, 8.9 9.84 32, 43, 51 (Avg:47)
55 Louise Stanley Burrabidgy Boy 18 8:08:01 10.9, 8.9 9.84 36, 36, 43 (Avg:39)
56 Ken Hobday Blue 19 8:08:02 10.9, 8.9 9.84 36, 38, 43 (Avg:40)
82 Liz Cullam Al Barak 20 8:10:00 10.4, 9.2 9.80 30, 37, 39 (Avg:38)
96 Deb Ryan Chimanimani 20 8:10:00 10.4, 9.2 9.80 36, 37, 45 (Avg:41)
81 Russell Bowkett Xanadu Chiefy 22 8:10:01 10.4, 9.2 9.80 35, 42, 47 (Avg:44)
69 Janet Cameron Jewel Park Jezebell 23 8:19:00 9.9, 9.3 9.62 33, 40, 44 (Avg:42)
67 Ian Symington Simmo 24 8:23:00 11.1, 8.3 9.54 35, 43, 49 (Avg:46)
72 Bruce Scott Dinewani Limited Edition 25 8:28:00 10.8, 8.3 9.45 34, 41, 39 (Avg:40)
R3 Vaughan South Ralvon Pilot 26 8:54:00 10.8, 7.6 8.99 47, 50, 52 (Avg:51)
63 Caitlin Liebmann-Reimers Mexico 27 8:57:00 8.5, 9.3 8.94 45, 44, 50 (Avg:47)
95 Dave Malatesta El Sharan Tien Lame L2 0:00:00 10.4, 9.3 - 46, 38, 49 (Avg:43)
83 Paul Willmott Yaldon Saif Lame L2 0:00:00 11.1, 8.3 - 35, 48, 58 (Avg:53)
105 Anita Lunt Assiff Lame L1 0:00:00 10.9 - 43, 48 (Avg:48)
62 Janet Wann Ruby Park Question Withdrawn L1 0:00:00 - - 37, 52 (Avg:52)
Lightweight
98 Joanna McCord Leadale Jadea 1 (BC) 6:30:00 12.8, 11.8 12.31 32, 33, 53 (Avg:43)
84 Jane Radny Shah Tarn Shakland 2 6:32:00 14.3, 10.6 12.24 40, 37, 43 (Avg:40)
108 Amanda Rayner Ruby Park Clewyyd 3 6:45:00 13.7, 10.3 11.85 39, 43, 44 (Avg:43)
58 Miriam Burns Rushlake Georgiana 4 6:49:00 12.8, 10.8 11.74 41, 50, 54 (Avg:52)
50 Linda Moss Veronica Lea 5 7:00:00 11.9, 10.9 11.43 32, 43, 40 (Avg:41)
116 Heike Fox Yaldon Shagar 6 7:01:00 13.7, 9.7 11.40 44, 35, 47 (Avg:41)
R1 Shan Symons Dashanda Dhabi 7 7:10:00 12.1, 10.3 11.16 42, 32, 49 (Avg:40)
113 Carol Willcocks Tipperary Pandora 8 7:26:00 12.0, 9.7 10.76 32, 41, 41 (Avg:41)
87 Lesley Goslett Balgownie Harrington 9 7:27:00 12.1, 9.6 10.74 34, 39, 49 (Avg:44)
106 Lyn Summerfield Yeelirrie Arabian Prancer 10 7:34:00 11.0, 10.1 10.57 32, 38, 52 (Avg:45)
88 Liz Mulcahy Broadway 11 7:34:01 11.0, 10.1 10.57 31, 39, 46 (Avg:42)
101 Lorraine Riches Star 12 7:58:00 10.4, 9.6 10.04 33, 35, 50 (Avg:42)
91 Lorna Chambers Maralinga Destiny 13 8:06:00 10.3, 9.4 9.88 40, 46, 54 (Avg:50)
117 Heather Hawkins Shah Tarkarra 13 8:06:00 10.3, 9.4 9.88 36, 40, 44 (Avg:42)
64 Crystal Humphry White Horse Whisky 15 8:19:00 9.9, 9.3 9.62 35, 38, 41 (Avg:39)
52 Dawn Carthew Lou Bars Margarita 16 8:28:00 10.8, 8.3 9.45 33, 37, 44 (Avg:40)
110 Kellie Tilbee Liberty Shirralee Moondust 17 8:40:00 9.0, 9.4 9.23 46, 52, 50 (Avg:51)
109 Linda Dix Ebony Rose 18 8:49:00 9.0, 9.1 9.07 40, 44, 47 (Avg:45)
97 Brenda Blucher Syrashar 19 9:26:00 8.3, 8.6 8.48 35, 46, 45 (Avg:45)
59 Jan Andrews Glenrenley Rainbow Lame L2 0:00:00 11.4, 7.4 - 46, 46, 50 (Avg:48)
111 Sally May Shaaqa Disqualified L2 0:00:00 9.6, 8.7 - 40, 43, 57 (Avg:50)
102 Joan Gill Pippa's Princess Lame L1 0:00:00 10.8 - 35, 43 (Avg:43)
Junior
112 Elyse Hall Maralinga Imagine That 1 6:44:00 13.7, 10.4 11.88 38, 41, 47 (Avg:44)
51 Tiffany Mitchell Warrondi Quinette 2 7:00:00 11.9, 10.9 11.43 31, 39, 42 (Avg:40)
114 Sara Thompson Dine Wani Al Jahara 3 7:26:00 12.0, 9.7 10.76 36, 42, 47 (Avg:44)
115 Amanda Colli Robert 4 7:34:00 11.1, 10.0 10.57 36, 38, 43 (Avg:40)
107 Jamie Linthorne Tazsh Kamil Lea 4 7:34:00 11.1, 10.0 10.57 36, 41, 44 (Avg:42)
89 Cassie Mulcahy Top Fancy Foxfire 4 7:34:00 11.1, 10.0 10.57 40, 44, 47 (Avg:45)
65 Craig Adlam Shifra 7 7:58:00 10.4, 9.6 10.04 30, 41, 45 (Avg:43)
100 David Riches Kalkadoon Sharjah Lame L2 0:00:00 10.4, 8.3 - 35, 35, 53 (Avg:44)
90 Michael Blucher Tanderra Pizaz Withdrawn L1 0:00:00 - - 30, 39 (Avg:39)